sensor_id;sensor_type;location;lat;lon;timestamp;temperature;humidity
44117;DHT22;29781;49.480;8.512;2023-11-21T00:01:54;9.80;99.90
44117;DHT22;29781;49.480;8.512;2023-11-21T00:04:20;9.80;99.90
44117;DHT22;29781;49.480;8.512;2023-11-21T00:06:45;9.80;99.90
44117;DHT22;29781;49.480;8.512;2023-11-21T00:09:12;9.80;99.90
44117;DHT22;29781;49.480;8.512;2023-11-21T00:11:40;9.90;99.90
44117;DHT22;29781;49.480;8.512;2023-11-21T00:14:06;9.90;99.90
44117;DHT22;29781;49.480;8.512;2023-11-21T00:16:31;9.90;99.90
44117;DHT22;29781;49.480;8.512;2023-11-21T00:18:57;9.90;99.90
44117;DHT22;29781;49.480;8.512;2023-11-21T00:21:22;9.90;99.90
44117;DHT22;29781;49.480;8.512;2023-11-21T00:23:48;9.90;99.90
44117;DHT22;29781;49.480;8.512;2023-11-21T00:26:13;9.90;99.90
44117;DHT22;29781;49.480;8.512;2023-11-21T00:28:39;9.90;99.90
44117;DHT22;29781;49.480;8.512;2023-11-21T00:31:05;9.80;99.90
44117;DHT22;29781;49.480;8.512;2023-11-21T00:33:31;9.90;99.90
44117;DHT22;29781;49.480;8.512;2023-11-21T00:35:57;9.90;99.90
44117;DHT22;29781;49.480;8.512;2023-11-21T00:38:22;9.80;99.90
44117;DHT22;29781;49.480;8.512;2023-11-21T00:40:48;9.80;99.90
44117;DHT22;29781;49.480;8.512;2023-11-21T00:43:13;9.80;99.90
44117;DHT22;29781;49.480;8.512;2023-11-21T00:45:39;9.80;99.90
44117;DHT22;29781;49.480;8.512;2023-11-21T00:48:05;9.80;99.90
44117;DHT22;29781;49.480;8.512;2023-11-21T00:50:31;9.90;99.90
44117;DHT22;29781;49.480;8.512;2023-11-21T00:52:56;9.80;99.90
44117;DHT22;29781;49.480;8.512;2023-11-21T00:55:22;9.90;99.90
44117;DHT22;29781;49.480;8.512;2023-11-21T00:57:48;9.90;99.90
44117;DHT22;29781;49.480;8.512;2023-11-21T01:00:14;9.80;99.90
44117;DHT22;29781;49.480;8.512;2023-11-21T01:02:43;9.90;99.90
44117;DHT22;29781;49.480;8.512;2023-11-21T01:05:10;9.90;99.90
44117;DHT22;29781;49.480;8.512;2023-11-21T01:07:36;9.90;99.90
44117;DHT22;29781;49.480;8.512;2023-11-21T01:10:05;10.00;99.90
44117;DHT22;29781;49.480;8.512;2023-11-21T01:12:34;10.00;99.90
44117;DHT22;29781;49.480;8.512;2023-11-21T01:15:00;10.00;99.90
44117;DHT22;29781;49.480;8.512;2023-11-21T01:17:26;10.00;99.90
44117;DHT22;29781;49.480;8.512;2023-11-21T01:19:52;10.00;99.90
44117;DHT22;29781;49.480;8.512;2023-11-21T01:22:18;10.00;99.90
44117;DHT22;29781;49.480;8.512;2023-11-21T01:24:47;10.00;99.90
44117;DHT22;29781;49.480;8.512;2023-11-21T01:27:13;10.00;99.90
44117;DHT22;29781;49.480;8.512;2023-11-21T01:29:38;10.00;99.90
44117;DHT22;29781;49.480;8.512;2023-11-21T01:32:04;10.00;99.90
44117;DHT22;29781;49.480;8.512;2023-11-21T01:34:30;10.00;99.90
44117;DHT22;29781;49.480;8.512;2023-11-21T01:36:56;10.00;99.90
44117;DHT22;29781;49.480;8.512;2023-11-21T01:39:21;9.90;99.90
44117;DHT22;29781;49.480;8.512;2023-11-21T01:41:50;9.90;99.90
44117;DHT22;29781;49.480;8.512;2023-11-21T01:44:16;10.00;99.90
44117;DHT22;29781;49.480;8.512;2023-11-21T01:46:42;10.00;99.90
44117;DHT22;29781;49.480;8.512;2023-11-21T01:49:09;10.00;99.90
44117;DHT22;29781;49.480;8.512;2023-11-21T01:51:36;9.90;99.90
44117;DHT22;29781;49.480;8.512;2023-11-21T01:54:02;9.90;99.90
44117;DHT22;29781;49.480;8.512;2023-11-21T01:56:30;9.90;99.90
44117;DHT22;29781;49.480;8.512;2023-11-21T01:58:57;9.90;99.90
44117;DHT22;29781;49.480;8.512;2023-11-21T02:01:22;9.90;99.90
44117;DHT22;29781;49.480;8.512;2023-11-21T02:03:48;9.90;99.90
44117;DHT22;29781;49.480;8.512;2023-11-21T02:06:14;10.00;99.90
44117;DHT22;29781;49.480;8.512;2023-11-21T02:08:39;10.00;99.90
44117;DHT22;29781;49.480;8.512;2023-11-21T02:11:07;10.00;99.90
44117;DHT22;29781;49.480;8.512;2023-11-21T02:13:33;10.00;99.90
44117;DHT22;29781;49.480;8.512;2023-11-21T02:15:58;10.10;99.90
44117;DHT22;29781;49.480;8.512;2023-11-21T02:18:24;10.10;99.90
44117;DHT22;29781;49.480;8.512;2023-11-21T02:20:49;10.10;99.90
44117;DHT22;29781;49.480;8.512;2023-11-21T02:23:15;10.00;99.90
44117;DHT22;29781;49.480;8.512;2023-11-21T02:25:40;10.00;99.90
44117;DHT22;29781;49.480;8.512;2023-11-21T02:28:08;10.00;99.90
44117;DHT22;29781;49.480;8.512;2023-11-21T02:30:33;10.10;99.90
44117;DHT22;29781;49.480;8.512;2023-11-21T02:33:00;10.10;99.90
44117;DHT22;29781;49.480;8.512;2023-11-21T02:35:26;10.20;99.90
44117;DHT22;29781;49.480;8.512;2023-11-21T02:37:52;10.10;99.90
44117;DHT22;29781;49.480;8.512;2023-11-21T02:40:18;10.10;99.90
44117;DHT22;29781;49.480;8.512;2023-11-21T02:42:48;10.20;99.90
44117;DHT22;29781;49.480;8.512;2023-11-21T02:45:18;10.10;99.90
44117;DHT22;29781;49.480;8.512;2023-11-21T02:47:44;10.10;99.90
44117;DHT22;29781;49.480;8.512;2023-11-21T02:50:10;10.10;99.90
44117;DHT22;29781;49.480;8.512;2023-11-21T02:52:36;10.20;99.90
44117;DHT22;29781;49.480;8.512;2023-11-21T02:55:04;10.10;99.90
44117;DHT22;29781;49.480;8.512;2023-11-21T02:57:30;10.20;99.90
44117;DHT22;29781;49.480;8.512;2023-11-21T02:59:56;10.10;99.90
44117;DHT22;29781;49.480;8.512;2023-11-21T03:02:21;10.10;99.90
44117;DHT22;29781;49.480;8.512;2023-11-21T03:04:47;10.10;99.90
44117;DHT22;29781;49.480;8.512;2023-11-21T03:07:14;10.10;99.90
44117;DHT22;29781;49.480;8.512;2023-11-21T03:09:40;10.10;99.90
44117;DHT22;29781;49.480;8.512;2023-11-21T03:12:05;10.10;99.90
44117;DHT22;29781;49.480;8.512;2023-11-21T03:14:31;10.10;99.90
44117;DHT22;29781;49.480;8.512;2023-11-21T03:16:57;10.20;99.90
44117;DHT22;29781;49.480;8.512;2023-11-21T03:19:22;10.20;99.90
44117;DHT22;29781;49.480;8.512;2023-11-21T03:21:49;10.20;99.90
44117;DHT22;29781;49.480;8.512;2023-11-21T03:24:14;10.20;99.90
44117;DHT22;29781;49.480;8.512;2023-11-21T03:26:44;10.20;99.90
44117;DHT22;29781;49.480;8.512;2023-11-21T03:29:10;10.20;99.90
44117;DHT22;29781;49.480;8.512;2023-11-21T03:31:35;10.20;99.90
44117;DHT22;29781;49.480;8.512;2023-11-21T03:34:01;10.20;99.90
44117;DHT22;29781;49.480;8.512;2023-11-21T03:36:27;10.20;99.90
44117;DHT22;29781;49.480;8.512;2023-11-21T03:38:52;10.10;99.90
44117;DHT22;29781;49.480;8.512;2023-11-21T03:41:18;10.10;99.90
44117;DHT22;29781;49.480;8.512;2023-11-21T03:43:43;10.10;99.90
44117;DHT22;29781;49.480;8.512;2023-11-21T03:46:09;10.10;99.90
44117;DHT22;29781;49.480;8.512;2023-11-21T03:48:35;10.10;99.90
44117;DHT22;29781;49.480;8.512;2023-11-21T03:51:00;10.10;99.90
44117;DHT22;29781;49.480;8.512;2023-11-21T03:53:26;10.10;99.90
44117;DHT22;29781;49.480;8.512;2023-11-21T03:55:51;10.20;99.90
44117;DHT22;29781;49.480;8.512;2023-11-21T03:58:17;10.20;99.90
44117;DHT22;29781;49.480;8.512;2023-11-21T04:00:43;10.20;99.90
44117;DHT22;29781;49.480;8.512;2023-11-21T04:03:08;10.20;99.90
44117;DHT22;29781;49.480;8.512;2023-11-21T04:05:34;10.10;99.90
44117;DHT22;29781;49.480;8.512;2023-11-21T04:07:59;10.20;99.90
44117;DHT22;29781;49.480;8.512;2023-11-21T04:10:25;10.20;99.90
44117;DHT22;29781;49.480;8.512;2023-11-21T04:12:50;10.20;99.90
44117;DHT22;29781;49.480;8.512;2023-11-21T04:15:15;10.20;99.90
44117;DHT22;29781;49.480;8.512;2023-11-21T04:17:42;10.30;99.90
44117;DHT22;29781;49.480;8.512;2023-11-21T04:20:08;10.30;99.90
44117;DHT22;29781;49.480;8.512;2023-11-21T04:22:39;10.30;99.90
44117;DHT22;29781;49.480;8.512;2023-11-21T04:25:13;10.40;99.90
44117;DHT22;29781;49.480;8.512;2023-11-21T04:27:40;10.40;99.90
44117;DHT22;29781;49.480;8.512;2023-11-21T04:30:06;10.40;99.90
44117;DHT22;29781;49.480;8.512;2023-11-21T04:32:33;10.40;99.90
44117;DHT22;29781;49.480;8.512;2023-11-21T04:34:58;10.40;99.90
44117;DHT22;29781;49.480;8.512;2023-11-21T04:37:24;10.30;99.90
44117;DHT22;29781;49.480;8.512;2023-11-21T04:39:49;10.40;99.90
44117;DHT22;29781;49.480;8.512;2023-11-21T04:42:15;10.40;99.90
44117;DHT22;29781;49.480;8.512;2023-11-21T04:44:41;10.40;99.90
44117;DHT22;29781;49.480;8.512;2023-11-21T04:47:07;10.40;99.90
44117;DHT22;29781;49.480;8.512;2023-11-21T04:49:33;10.30;99.90
44117;DHT22;29781;49.480;8.512;2023-11-21T04:51:58;10.30;99.90
44117;DHT22;29781;49.480;8.512;2023-11-21T04:54:24;10.30;99.90
44117;DHT22;29781;49.480;8.512;2023-11-21T04:56:49;10.30;99.90
44117;DHT22;29781;49.480;8.512;2023-11-21T04:59:15;10.30;99.90
44117;DHT22;29781;49.480;8.512;2023-11-21T05:01:41;10.30;99.90
44117;DHT22;29781;49.480;8.512;2023-11-21T05:04:06;10.40;99.90
44117;DHT22;29781;49.480;8.512;2023-11-21T05:06:34;10.40;99.90
44117;DHT22;29781;49.480;8.512;2023-11-21T05:08:59;10.40;99.90
44117;DHT22;29781;49.480;8.512;2023-11-21T05:11:26;10.40;99.90
44117;DHT22;29781;49.480;8.512;2023-11-21T05:13:52;10.40;99.90
44117;DHT22;29781;49.480;8.512;2023-11-21T05:16:19;10.40;99.90
44117;DHT22;29781;49.480;8.512;2023-11-21T05:18:45;10.40;99.90
44117;DHT22;29781;49.480;8.512;2023-11-21T05:21:10;10.30;99.90
44117;DHT22;29781;49.480;8.512;2023-11-21T05:23:36;10.40;99.90
44117;DHT22;29781;49.480;8.512;2023-11-21T05:26:02;10.30;99.90
44117;DHT22;29781;49.480;8.512;2023-11-21T05:28:28;10.30;99.90
44117;DHT22;29781;49.480;8.512;2023-11-21T05:30:53;10.20;99.90
44117;DHT22;29781;49.480;8.512;2023-11-21T05:33:20;10.10;99.90
44117;DHT22;29781;49.480;8.512;2023-11-21T05:35:45;10.10;99.90
44117;DHT22;29781;49.480;8.512;2023-11-21T05:38:11;10.10;99.90
44117;DHT22;29781;49.480;8.512;2023-11-21T05:40:37;10.20;99.90
44117;DHT22;29781;49.480;8.512;2023-11-21T05:43:02;10.20;99.90
44117;DHT22;29781;49.480;8.512;2023-11-21T05:45:28;10.10;99.90
44117;DHT22;29781;49.480;8.512;2023-11-21T05:47:55;10.10;99.90
44117;DHT22;29781;49.480;8.512;2023-11-21T05:50:20;10.00;99.90
44117;DHT22;29781;49.480;8.512;2023-11-21T05:52:48;10.00;99.90
44117;DHT22;29781;49.480;8.512;2023-11-21T05:55:14;10.00;99.90
44117;DHT22;29781;49.480;8.512;2023-11-21T05:57:41;10.10;99.90
44117;DHT22;29781;49.480;8.512;2023-11-21T06:00:10;10.20;99.90
44117;DHT22;29781;49.480;8.512;2023-11-21T06:02:40;10.10;99.90
44117;DHT22;29781;49.480;8.512;2023-11-21T06:05:09;10.00;99.90
44117;DHT22;29781;49.480;8.512;2023-11-21T06:07:34;9.80;99.90
44117;DHT22;29781;49.480;8.512;2023-11-21T06:10:02;9.90;99.90
44117;DHT22;29781;49.480;8.512;2023-11-21T06:12:28;9.90;99.90
44117;DHT22;29781;49.480;8.512;2023-11-21T06:14:54;10.00;99.90
44117;DHT22;29781;49.480;8.512;2023-11-21T06:17:20;10.00;99.90
44117;DHT22;29781;49.480;8.512;2023-11-21T06:19:46;10.10;99.90
44117;DHT22;29781;49.480;8.512;2023-11-21T06:22:11;10.00;99.90
44117;DHT22;29781;49.480;8.512;2023-11-21T06:24:37;10.10;99.90
44117;DHT22;29781;49.480;8.512;2023-11-21T06:27:06;10.00;99.90
44117;DHT22;29781;49.480;8.512;2023-11-21T06:29:31;9.90;99.90
44117;DHT22;29781;49.480;8.512;2023-11-21T06:31:57;9.90;99.90
44117;DHT22;29781;49.480;8.512;2023-11-21T06:34:23;9.90;99.90
44117;DHT22;29781;49.480;8.512;2023-11-21T06:36:49;9.90;99.90
44117;DHT22;29781;49.480;8.512;2023-11-21T06:39:15;9.80;99.90
44117;DHT22;29781;49.480;8.512;2023-11-21T06:41:42;9.90;99.90
44117;DHT22;29781;49.480;8.512;2023-11-21T06:44:08;9.90;99.90
44117;DHT22;29781;49.480;8.512;2023-11-21T06:46:34;9.90;99.90
44117;DHT22;29781;49.480;8.512;2023-11-21T06:48:59;9.90;99.90
44117;DHT22;29781;49.480;8.512;2023-11-21T06:51:25;9.90;99.90
44117;DHT22;29781;49.480;8.512;2023-11-21T06:53:50;9.90;99.90
44117;DHT22;29781;49.480;8.512;2023-11-21T06:56:17;9.80;99.90
44117;DHT22;29781;49.480;8.512;2023-11-21T06:58:44;9.90;99.90
44117;DHT22;29781;49.480;8.512;2023-11-21T07:01:11;9.90;99.90
44117;DHT22;29781;49.480;8.512;2023-11-21T07:03:36;10.10;99.90
44117;DHT22;29781;49.480;8.512;2023-11-21T07:06:03;10.00;99.90
44117;DHT22;29781;49.480;8.512;2023-11-21T07:08:28;10.00;99.90
44117;DHT22;29781;49.480;8.512;2023-11-21T07:10:54;10.00;99.90
44117;DHT22;29781;49.480;8.512;2023-11-21T07:13:19;9.90;99.90
44117;DHT22;29781;49.480;8.512;2023-11-21T07:15:45;9.90;99.90
44117;DHT22;29781;49.480;8.512;2023-11-21T07:18:10;9.90;99.90
44117;DHT22;29781;49.480;8.512;2023-11-21T07:20:37;9.80;99.90
44117;DHT22;29781;49.480;8.512;2023-11-21T07:23:02;9.80;99.90
44117;DHT22;29781;49.480;8.512;2023-11-21T07:25:29;9.80;99.90
44117;DHT22;29781;49.480;8.512;2023-11-21T07:27:54;9.80;99.90
44117;DHT22;29781;49.480;8.512;2023-11-21T07:30:20;9.90;99.90
44117;DHT22;29781;49.480;8.512;2023-11-21T07:32:48;9.90;99.90
44117;DHT22;29781;49.480;8.512;2023-11-21T07:35:13;9.90;99.90
44117;DHT22;29781;49.480;8.512;2023-11-21T07:37:39;9.70;99.90
44117;DHT22;29781;49.480;8.512;2023-11-21T07:40:05;9.80;99.90
44117;DHT22;29781;49.480;8.512;2023-11-21T07:42:31;9.80;99.90
44117;DHT22;29781;49.480;8.512;2023-11-21T07:44:56;9.80;99.90
44117;DHT22;29781;49.480;8.512;2023-11-21T07:47:22;9.60;99.90
44117;DHT22;29781;49.480;8.512;2023-11-21T07:49:47;9.50;99.90
44117;DHT22;29781;49.480;8.512;2023-11-21T07:52:13;9.50;99.90
44117;DHT22;29781;49.480;8.512;2023-11-21T07:54:41;9.50;99.90
44117;DHT22;29781;49.480;8.512;2023-11-21T07:57:07;9.50;99.90
44117;DHT22;29781;49.480;8.512;2023-11-21T07:59:32;9.50;99.90
44117;DHT22;29781;49.480;8.512;2023-11-21T08:01:58;9.60;99.90
44117;DHT22;29781;49.480;8.512;2023-11-21T08:04:24;9.80;99.90
44117;DHT22;29781;49.480;8.512;2023-11-21T08:06:49;9.60;99.90
44117;DHT22;29781;49.480;8.512;2023-11-21T08:09:15;9.50;99.90
44117;DHT22;29781;49.480;8.512;2023-11-21T08:11:42;9.70;99.90
44117;DHT22;29781;49.480;8.512;2023-11-21T08:14:08;9.60;99.90
44117;DHT22;29781;49.480;8.512;2023-11-21T08:16:33;9.60;99.90
44117;DHT22;29781;49.480;8.512;2023-11-21T08:18:59;9.60;99.90
44117;DHT22;29781;49.480;8.512;2023-11-21T08:21:24;9.70;99.90
44117;DHT22;29781;49.480;8.512;2023-11-21T08:23:50;9.80;99.90
44117;DHT22;29781;49.480;8.512;2023-11-21T08:26:20;9.80;99.90
44117;DHT22;29781;49.480;8.512;2023-11-21T08:28:45;9.70;99.90
44117;DHT22;29781;49.480;8.512;2023-11-21T08:31:12;9.80;99.90
44117;DHT22;29781;49.480;8.512;2023-11-21T08:33:38;9.80;99.90
44117;DHT22;29781;49.480;8.512;2023-11-21T08:36:10;9.80;99.90
44117;DHT22;29781;49.480;8.512;2023-11-21T08:38:37;9.80;99.90
44117;DHT22;29781;49.480;8.512;2023-11-21T08:41:05;9.70;99.90
44117;DHT22;29781;49.480;8.512;2023-11-21T08:43:35;9.70;99.90
44117;DHT22;29781;49.480;8.512;2023-11-21T08:46:01;9.70;99.90
44117;DHT22;29781;49.480;8.512;2023-11-21T08:48:26;9.70;99.90
44117;DHT22;29781;49.480;8.512;2023-11-21T08:50:53;9.70;99.90
44117;DHT22;29781;49.480;8.512;2023-11-21T08:53:19;9.60;99.90
44117;DHT22;29781;49.480;8.512;2023-11-21T08:55:45;9.40;99.90
44117;DHT22;29781;49.480;8.512;2023-11-21T08:58:11;9.40;99.90
44117;DHT22;29781;49.480;8.512;2023-11-21T09:00:37;9.40;99.90
44117;DHT22;29781;49.480;8.512;2023-11-21T09:03:04;9.40;99.90
44117;DHT22;29781;49.480;8.512;2023-11-21T09:05:34;9.40;99.90
44117;DHT22;29781;49.480;8.512;2023-11-21T09:07:59;9.50;99.90
44117;DHT22;29781;49.480;8.512;2023-11-21T09:10:25;9.50;99.90
44117;DHT22;29781;49.480;8.512;2023-11-21T09:12:50;9.40;99.90
44117;DHT22;29781;49.480;8.512;2023-11-21T09:15:17;9.40;99.90
44117;DHT22;29781;49.480;8.512;2023-11-21T09:17:42;9.50;99.90
44117;DHT22;29781;49.480;8.512;2023-11-21T09:20:10;9.50;99.90
44117;DHT22;29781;49.480;8.512;2023-11-21T09:22:35;9.70;99.90
44117;DHT22;29781;49.480;8.512;2023-11-21T09:25:01;9.70;99.90
44117;DHT22;29781;49.480;8.512;2023-11-21T09:27:31;9.60;99.90
44117;DHT22;29781;49.480;8.512;2023-11-21T09:29:56;9.50;99.90
44117;DHT22;29781;49.480;8.512;2023-11-21T09:32:23;9.70;99.90
44117;DHT22;29781;49.480;8.512;2023-11-21T09:34:49;9.60;99.90
44117;DHT22;29781;49.480;8.512;2023-11-21T09:37:16;9.70;99.90
44117;DHT22;29781;49.480;8.512;2023-11-21T09:39:41;9.70;99.90
44117;DHT22;29781;49.480;8.512;2023-11-21T09:42:12;9.60;99.90
44117;DHT22;29781;49.480;8.512;2023-11-21T09:44:48;9.70;99.90
44117;DHT22;29781;49.480;8.512;2023-11-21T09:47:17;9.60;99.90
44117;DHT22;29781;49.480;8.512;2023-11-21T09:49:49;9.60;99.90
44117;DHT22;29781;49.480;8.512;2023-11-21T09:52:25;9.60;99.90
44117;DHT22;29781;49.480;8.512;2023-11-21T09:54:52;9.70;99.90
44117;DHT22;29781;49.480;8.512;2023-11-21T09:57:22;9.70;99.90
44117;DHT22;29781;49.480;8.512;2023-11-21T09:59:51;9.70;99.90
44117;DHT22;29781;49.480;8.512;2023-11-21T10:02:23;9.70;99.90
44117;DHT22;29781;49.480;8.512;2023-11-21T10:04:51;9.70;99.90
44117;DHT22;29781;49.480;8.512;2023-11-21T10:07:17;9.70;99.90
44117;DHT22;29781;49.480;8.512;2023-11-21T10:09:44;9.80;99.90
44117;DHT22;29781;49.480;8.512;2023-11-21T10:12:11;9.70;99.90
44117;DHT22;29781;49.480;8.512;2023-11-21T10:14:41;9.80;99.90
44117;DHT22;29781;49.480;8.512;2023-11-21T10:17:08;9.90;99.90
44117;DHT22;29781;49.480;8.512;2023-11-21T10:19:35;9.90;99.90
44117;DHT22;29781;49.480;8.512;2023-11-21T10:22:02;10.00;99.90
44117;DHT22;29781;49.480;8.512;2023-11-21T10:24:29;10.20;99.90
44117;DHT22;29781;49.480;8.512;2023-11-21T10:26:54;10.30;99.90
44117;DHT22;29781;49.480;8.512;2023-11-21T10:29:20;10.20;99.90
44117;DHT22;29781;49.480;8.512;2023-11-21T10:31:50;10.30;99.90
44117;DHT22;29781;49.480;8.512;2023-11-21T10:34:18;10.30;99.90
44117;DHT22;29781;49.480;8.512;2023-11-21T10:36:44;10.40;99.90
44117;DHT22;29781;49.480;8.512;2023-11-21T10:39:20;10.50;99.90
44117;DHT22;29781;49.480;8.512;2023-11-21T10:41:48;10.40;99.90
44117;DHT22;29781;49.480;8.512;2023-11-21T10:44:15;10.30;99.90
44117;DHT22;29781;49.480;8.512;2023-11-21T10:46:54;10.40;99.90
44117;DHT22;29781;49.480;8.512;2023-11-21T10:49:26;10.40;99.90
44117;DHT22;29781;49.480;8.512;2023-11-21T10:51:55;10.30;99.90
44117;DHT22;29781;49.480;8.512;2023-11-21T10:54:22;10.10;99.90
44117;DHT22;29781;49.480;8.512;2023-11-21T10:56:58;9.90;99.90
44117;DHT22;29781;49.480;8.512;2023-11-21T10:59:28;10.00;99.90
44117;DHT22;29781;49.480;8.512;2023-11-21T11:01:56;10.00;99.90
44117;DHT22;29781;49.480;8.512;2023-11-21T11:04:22;10.00;99.90
44117;DHT22;29781;49.480;8.512;2023-11-21T11:07:02;10.30;99.90
44117;DHT22;29781;49.480;8.512;2023-11-21T11:09:30;10.20;99.90
44117;DHT22;29781;49.480;8.512;2023-11-21T11:11:58;10.00;99.90
44117;DHT22;29781;49.480;8.512;2023-11-21T11:14:24;10.00;99.90
44117;DHT22;29781;49.480;8.512;2023-11-21T11:16:53;10.00;99.90
44117;DHT22;29781;49.480;8.512;2023-11-21T11:19:22;9.90;99.90
44117;DHT22;29781;49.480;8.512;2023-11-21T11:28:01;10.20;99.90
44117;DHT22;29781;49.480;8.512;2023-11-21T11:31:04;10.30;99.90
44117;DHT22;29781;49.480;8.512;2023-11-21T11:36:31;10.40;99.90
44117;DHT22;29781;49.480;8.512;2023-11-21T11:38:59;10.30;99.90
44117;DHT22;29781;49.480;8.512;2023-11-21T11:41:30;10.30;99.90
44117;DHT22;29781;49.480;8.512;2023-11-21T11:44:00;10.20;99.90
44117;DHT22;29781;49.480;8.512;2023-11-21T11:46:46;10.30;99.90
44117;DHT22;29781;49.480;8.512;2023-11-21T11:49:23;10.40;99.90
44117;DHT22;29781;49.480;8.512;2023-11-21T11:54:55;10.40;99.90
44117;DHT22;29781;49.480;8.512;2023-11-21T11:57:24;10.50;99.90
44117;DHT22;29781;49.480;8.512;2023-11-21T12:00:08;10.50;99.90
44117;DHT22;29781;49.480;8.512;2023-11-21T12:02:36;10.60;99.90
44117;DHT22;29781;49.480;8.512;2023-11-21T12:05:09;10.60;99.90
44117;DHT22;29781;49.480;8.512;2023-11-21T12:07:54;10.80;99.90
44117;DHT22;29781;49.480;8.512;2023-11-21T12:10:28;10.80;99.90
44117;DHT22;29781;49.480;8.512;2023-11-21T12:13:07;10.70;99.90
44117;DHT22;29781;49.480;8.512;2023-11-21T12:15:34;10.60;99.90
44117;DHT22;29781;49.480;8.512;2023-11-21T12:18:00;10.50;99.90
44117;DHT22;29781;49.480;8.512;2023-11-21T12:20:27;10.70;99.90
44117;DHT22;29781;49.480;8.512;2023-11-21T12:22:55;11.00;99.90
44117;DHT22;29781;49.480;8.512;2023-11-21T12:25:23;11.10;99.90
44117;DHT22;29781;49.480;8.512;2023-11-21T12:27:51;11.00;99.90
44117;DHT22;29781;49.480;8.512;2023-11-21T12:30:21;11.00;99.90
44117;DHT22;29781;49.480;8.512;2023-11-21T12:32:55;10.90;99.90
44117;DHT22;29781;49.480;8.512;2023-11-21T12:35:34;10.90;99.90
44117;DHT22;29781;49.480;8.512;2023-11-21T12:38:01;11.00;99.90
44117;DHT22;29781;49.480;8.512;2023-11-21T12:40:30;10.90;99.90
44117;DHT22;29781;49.480;8.512;2023-11-21T12:42:59;11.10;99.90
44117;DHT22;29781;49.480;8.512;2023-11-21T12:45:28;11.10;99.90
44117;DHT22;29781;49.480;8.512;2023-11-21T12:48:01;11.10;99.90
44117;DHT22;29781;49.480;8.512;2023-11-21T12:50:30;10.90;99.90
44117;DHT22;29781;49.480;8.512;2023-11-21T12:53:04;11.10;99.90
44117;DHT22;29781;49.480;8.512;2023-11-21T12:55:32;11.00;99.90
44117;DHT22;29781;49.480;8.512;2023-11-21T12:57:58;10.90;99.90
44117;DHT22;29781;49.480;8.512;2023-11-21T13:00:35;10.90;99.90
44117;DHT22;29781;49.480;8.512;2023-11-21T13:03:04;11.00;99.90
44117;DHT22;29781;49.480;8.512;2023-11-21T13:05:32;10.80;99.90
44117;DHT22;29781;49.480;8.512;2023-11-21T13:08:00;10.80;99.90
44117;DHT22;29781;49.480;8.512;2023-11-21T13:10:31;10.80;99.90
44117;DHT22;29781;49.480;8.512;2023-11-21T13:12:58;10.70;99.90
44117;DHT22;29781;49.480;8.512;2023-11-21T13:15:25;10.70;99.90
44117;DHT22;29781;49.480;8.512;2023-11-21T13:17:51;10.70;99.90
44117;DHT22;29781;49.480;8.512;2023-11-21T13:20:17;10.80;99.90
44117;DHT22;29781;49.480;8.512;2023-11-21T13:22:47;10.80;99.90
44117;DHT22;29781;49.480;8.512;2023-11-21T13:25:15;10.90;99.90
44117;DHT22;29781;49.480;8.512;2023-11-21T13:27:45;11.00;99.90
44117;DHT22;29781;49.480;8.512;2023-11-21T13:30:13;11.10;99.90
44117;DHT22;29781;49.480;8.512;2023-11-21T13:32:45;11.20;99.90
44117;DHT22;29781;49.480;8.512;2023-11-21T13:35:12;11.30;99.90
44117;DHT22;29781;49.480;8.512;2023-11-21T13:37:56;11.30;99.90
44117;DHT22;29781;49.480;8.512;2023-11-21T13:40:25;11.10;99.90
44117;DHT22;29781;49.480;8.512;2023-11-21T13:42:54;11.00;99.90
44117;DHT22;29781;49.480;8.512;2023-11-21T13:45:21;11.10;99.90
44117;DHT22;29781;49.480;8.512;2023-11-21T13:47:49;11.00;99.90
44117;DHT22;29781;49.480;8.512;2023-11-21T13:50:16;11.20;99.90
44117;DHT22;29781;49.480;8.512;2023-11-21T13:52:48;11.40;99.90
44117;DHT22;29781;49.480;8.512;2023-11-21T13:55:14;11.60;99.90
44117;DHT22;29781;49.480;8.512;2023-11-21T13:57:42;11.40;99.90
44117;DHT22;29781;49.480;8.512;2023-11-21T14:00:15;11.30;99.90
44117;DHT22;29781;49.480;8.512;2023-11-21T14:03:01;11.10;99.90
44117;DHT22;29781;49.480;8.512;2023-11-21T14:05:34;11.10;99.90
44117;DHT22;29781;49.480;8.512;2023-11-21T14:08:00;11.30;99.90
44117;DHT22;29781;49.480;8.512;2023-11-21T14:10:30;11.40;99.90
44117;DHT22;29781;49.480;8.512;2023-11-21T14:13:09;11.40;99.90
44117;DHT22;29781;49.480;8.512;2023-11-21T14:15:39;11.30;99.90
44117;DHT22;29781;49.480;8.512;2023-11-21T14:18:08;11.10;99.90
44117;DHT22;29781;49.480;8.512;2023-11-21T14:20:39;11.10;99.90
44117;DHT22;29781;49.480;8.512;2023-11-21T14:23:05;11.10;99.90
44117;DHT22;29781;49.480;8.512;2023-11-21T14:25:36;11.10;99.90
44117;DHT22;29781;49.480;8.512;2023-11-21T14:28:07;11.10;99.90
44117;DHT22;29781;49.480;8.512;2023-11-21T14:30:33;11.20;99.90
44117;DHT22;29781;49.480;8.512;2023-11-21T14:33:01;11.40;99.90
44117;DHT22;29781;49.480;8.512;2023-11-21T14:35:27;11.40;99.90
44117;DHT22;29781;49.480;8.512;2023-11-21T14:37:53;11.40;99.90
44117;DHT22;29781;49.480;8.512;2023-11-21T14:40:19;11.30;99.90
44117;DHT22;29781;49.480;8.512;2023-11-21T14:42:50;11.20;99.90
44117;DHT22;29781;49.480;8.512;2023-11-21T14:45:18;11.10;99.90
44117;DHT22;29781;49.480;8.512;2023-11-21T14:47:48;11.10;99.90
44117;DHT22;29781;49.480;8.512;2023-11-21T14:50:41;11.20;99.90
44117;DHT22;29781;49.480;8.512;2023-11-21T14:53:07;11.20;99.90
44117;DHT22;29781;49.480;8.512;2023-11-21T14:55:33;11.10;99.90
44117;DHT22;29781;49.480;8.512;2023-11-21T14:58:18;11.00;99.90
44117;DHT22;29781;49.480;8.512;2023-11-21T15:00:55;11.10;99.90
44117;DHT22;29781;49.480;8.512;2023-11-21T15:03:28;11.10;99.90
44117;DHT22;29781;49.480;8.512;2023-11-21T15:05:58;11.10;99.90
44117;DHT22;29781;49.480;8.512;2023-11-21T15:08:24;11.00;99.90
44117;DHT22;29781;49.480;8.512;2023-11-21T15:10:57;11.00;99.90
44117;DHT22;29781;49.480;8.512;2023-11-21T15:13:23;11.00;99.90
44117;DHT22;29781;49.480;8.512;2023-11-21T15:15:51;11.00;99.90
44117;DHT22;29781;49.480;8.512;2023-11-21T15:18:19;11.10;99.90
44117;DHT22;29781;49.480;8.512;2023-11-21T15:20:45;11.10;99.90
44117;DHT22;29781;49.480;8.512;2023-11-21T15:23:11;11.00;99.90
44117;DHT22;29781;49.480;8.512;2023-11-21T15:25:38;11.00;99.90
44117;DHT22;29781;49.480;8.512;2023-11-21T15:28:04;11.00;99.90
44117;DHT22;29781;49.480;8.512;2023-11-21T15:30:30;11.00;99.90
44117;DHT22;29781;49.480;8.512;2023-11-21T15:32:58;10.80;99.90
44117;DHT22;29781;49.480;8.512;2023-11-21T15:35:23;10.70;99.90
44117;DHT22;29781;49.480;8.512;2023-11-21T15:37:49;10.60;99.90
44117;DHT22;29781;49.480;8.512;2023-11-21T15:40:15;10.50;99.90
44117;DHT22;29781;49.480;8.512;2023-11-21T15:42:42;10.50;99.90
44117;DHT22;29781;49.480;8.512;2023-11-21T15:45:08;10.50;99.90
44117;DHT22;29781;49.480;8.512;2023-11-21T15:47:34;10.50;99.90
44117;DHT22;29781;49.480;8.512;2023-11-21T15:50:00;10.50;99.90